sensor_id;sensor_type;location;lat;lon;timestamp;pressure;altitude;pressure_sealevel;temperature;humidity
14120;BME280;7138;49.246;9.100;2024-01-16T00:00:57;98340.69;;;-0.96;73.63
14120;BME280;7138;49.246;9.100;2024-01-16T00:03:23;98335.16;;;-0.95;72.61
14120;BME280;7138;49.246;9.100;2024-01-16T00:05:49;98337.94;;;-1.03;72.51
14120;BME280;7138;49.246;9.100;2024-01-16T00:08:14;98336.72;;;-1.15;73.33
14120;BME280;7138;49.246;9.100;2024-01-16T00:10:40;98344.59;;;-1.13;73.66
14120;BME280;7138;49.246;9.100;2024-01-16T00:13:06;98342.75;;;-1.13;73.37
14120;BME280;7138;49.246;9.100;2024-01-16T00:15:32;98342.00;;;-1.22;73.81
14120;BME280;7138;49.246;9.100;2024-01-16T00:17:59;98346.72;;;-1.24;73.39
14120;BME280;7138;49.246;9.100;2024-01-16T00:20:25;98352.47;;;-1.27;73.37
14120;BME280;7138;49.246;9.100;2024-01-16T00:22:51;98347.16;;;-1.20;73.67
14120;BME280;7138;49.246;9.100;2024-01-16T00:25:17;98347.09;;;-1.27;73.14
14120;BME280;7138;49.246;9.100;2024-01-16T00:27:45;98348.28;;;-1.29;73.68
14120;BME280;7138;49.246;9.100;2024-01-16T00:30:12;98354.78;;;-1.24;73.33
14120;BME280;7138;49.246;9.100;2024-01-16T00:32:39;98359.22;;;-1.16;72.84
14120;BME280;7138;49.246;9.100;2024-01-16T00:35:07;98354.31;;;-1.12;73.04
14120;BME280;7138;49.246;9.100;2024-01-16T00:37:33;98353.56;;;-1.06;72.72
14120;BME280;7138;49.246;9.100;2024-01-16T00:39:59;98354.13;;;-1.11;72.71
14120;BME280;7138;49.246;9.100;2024-01-16T00:42:24;98352.72;;;-1.22;72.95
14120;BME280;7138;49.246;9.100;2024-01-16T00:44:50;98351.34;;;-1.18;72.87
14120;BME280;7138;49.246;9.100;2024-01-16T00:47:16;98357.53;;;-1.32;72.58
14120;BME280;7138;49.246;9.100;2024-01-16T00:49:42;98352.03;;;-1.38;73.56
14120;BME280;7138;49.246;9.100;2024-01-16T00:52:10;98351.78;;;-1.43;73.12
14120;BME280;7138;49.246;9.100;2024-01-16T00:54:35;98357.16;;;-1.43;72.91
14120;BME280;7138;49.246;9.100;2024-01-16T00:57:02;98362.88;;;-1.47;72.86
14120;BME280;7138;49.246;9.100;2024-01-16T00:59:28;98361.03;;;-1.46;73.22
14120;BME280;7138;49.246;9.100;2024-01-16T01:01:54;98361.75;;;-1.52;72.84
14120;BME280;7138;49.246;9.100;2024-01-16T01:04:20;98366.94;;;-1.51;73.31
14120;BME280;7138;49.246;9.100;2024-01-16T01:06:45;98363.13;;;-1.56;73.66
14120;BME280;7138;49.246;9.100;2024-01-16T01:09:13;98360.72;;;-1.51;72.81
14120;BME280;7138;49.246;9.100;2024-01-16T01:11:38;98363.41;;;-1.51;72.74
14120;BME280;7138;49.246;9.100;2024-01-16T01:14:04;98371.13;;;-1.48;73.00
14120;BME280;7138;49.246;9.100;2024-01-16T01:16:30;98368.97;;;-1.53;73.00
14120;BME280;7138;49.246;9.100;2024-01-16T01:18:56;98362.97;;;-1.55;73.13
14120;BME280;7138;49.246;9.100;2024-01-16T01:21:22;98372.13;;;-1.49;73.15
14120;BME280;7138;49.246;9.100;2024-01-16T01:23:47;98370.13;;;-1.47;72.61
14120;BME280;7138;49.246;9.100;2024-01-16T01:26:15;98370.81;;;-1.53;72.68
14120;BME280;7138;49.246;9.100;2024-01-16T01:28:43;98379.44;;;-1.58;73.15
14120;BME280;7138;49.246;9.100;2024-01-16T01:31:09;98383.97;;;-1.58;73.65
14120;BME280;7138;49.246;9.100;2024-01-16T01:33:35;98379.06;;;-1.55;72.95
14120;BME280;7138;49.246;9.100;2024-01-16T01:36:01;98378.28;;;-1.63;73.62
14120;BME280;7138;49.246;9.100;2024-01-16T01:38:27;98383.84;;;-1.65;73.30
14120;BME280;7138;49.246;9.100;2024-01-16T01:40:52;98384.50;;;-1.63;73.28
14120;BME280;7138;49.246;9.100;2024-01-16T01:43:22;98389.22;;;-1.65;73.86
14120;BME280;7138;49.246;9.100;2024-01-16T01:46:08;98394.75;;;-1.66;74.15
14120;BME280;7138;49.246;9.100;2024-01-16T01:48:35;98396.44;;;-1.65;74.25
14120;BME280;7138;49.246;9.100;2024-01-16T01:51:02;98391.44;;;-1.68;73.74
14120;BME280;7138;49.246;9.100;2024-01-16T01:53:30;98403.09;;;-1.61;74.28
14120;BME280;7138;49.246;9.100;2024-01-16T01:55:57;98400.22;;;-1.60;74.27
14120;BME280;7138;49.246;9.100;2024-01-16T01:58:24;98406.47;;;-1.59;74.15
14120;BME280;7138;49.246;9.100;2024-01-16T02:00:50;98412.47;;;-1.57;73.48
14120;BME280;7138;49.246;9.100;2024-01-16T02:03:17;98393.56;;;-1.64;73.80
14120;BME280;7138;49.246;9.100;2024-01-16T02:05:45;98413.06;;;-1.47;73.46
14120;BME280;7138;49.246;9.100;2024-01-16T02:08:11;98409.34;;;-1.46;73.52
14120;BME280;7138;49.246;9.100;2024-01-16T02:10:42;98413.53;;;-1.43;73.75
14120;BME280;7138;49.246;9.100;2024-01-16T02:13:11;98401.13;;;-1.44;73.22
14120;BME280;7138;49.246;9.100;2024-01-16T02:15:38;98409.34;;;-1.46;73.50
14120;BME280;7138;49.246;9.100;2024-01-16T02:18:06;98413.53;;;-1.43;73.43
14120;BME280;7138;49.246;9.100;2024-01-16T02:20:32;98416.22;;;-1.43;73.67
14120;BME280;7138;49.246;9.100;2024-01-16T02:23:03;98419.16;;;-1.38;73.87
14120;BME280;7138;49.246;9.100;2024-01-16T02:25:30;98412.81;;;-1.37;74.05
14120;BME280;7138;49.246;9.100;2024-01-16T02:27:56;98425.56;;;-1.39;74.32
14120;BME280;7138;49.246;9.100;2024-01-16T02:30:23;98425.88;;;-1.34;74.43
14120;BME280;7138;49.246;9.100;2024-01-16T02:32:48;98426.88;;;-1.35;74.33
14120;BME280;7138;49.246;9.100;2024-01-16T02:35:14;98417.44;;;-1.31;74.85
14120;BME280;7138;49.246;9.100;2024-01-16T02:37:41;98419.94;;;-1.30;74.61
14120;BME280;7138;49.246;9.100;2024-01-16T02:40:08;98413.56;;;-1.29;74.66
14120;BME280;7138;49.246;9.100;2024-01-16T02:42:36;98412.84;;;-1.23;74.80
14120;BME280;7138;49.246;9.100;2024-01-16T02:45:06;98416.63;;;-1.17;74.51
14120;BME280;7138;49.246;9.100;2024-01-16T02:47:32;98411.25;;;-1.17;74.87
14120;BME280;7138;49.246;9.100;2024-01-16T02:49:59;98406.00;;;-1.10;74.48
14120;BME280;7138;49.246;9.100;2024-01-16T02:52:25;98407.59;;;-1.01;74.33
14120;BME280;7138;49.246;9.100;2024-01-16T02:54:50;98403.69;;;-0.99;74.93
14120;BME280;7138;49.246;9.100;2024-01-16T02:57:16;98405.16;;;-0.96;74.40
14120;BME280;7138;49.246;9.100;2024-01-16T02:59:44;98405.91;;;-1.02;74.82
14120;BME280;7138;49.246;9.100;2024-01-16T03:02:10;98409.56;;;-0.95;74.48
14120;BME280;7138;49.246;9.100;2024-01-16T03:04:37;98407.13;;;-0.90;74.31
14120;BME280;7138;49.246;9.100;2024-01-16T03:07:03;98410.47;;;-0.88;74.70
14120;BME280;7138;49.246;9.100;2024-01-16T03:09:29;98406.03;;;-0.81;74.71
14120;BME280;7138;49.246;9.100;2024-01-16T03:11:56;98406.84;;;-0.80;74.24
14120;BME280;7138;49.246;9.100;2024-01-16T03:14:21;98416.97;;;-0.82;74.80
14120;BME280;7138;49.246;9.100;2024-01-16T03:16:49;98409.16;;;-0.77;74.34
14120;BME280;7138;49.246;9.100;2024-01-16T03:19:15;98408.91;;;-0.68;74.61
14120;BME280;7138;49.246;9.100;2024-01-16T03:21:41;98409.91;;;-0.69;74.17
14120;BME280;7138;49.246;9.100;2024-01-16T03:24:07;98403.53;;;-0.68;74.27
14120;BME280;7138;49.246;9.100;2024-01-16T03:26:33;98410.22;;;-0.64;73.42
14120;BME280;7138;49.246;9.100;2024-01-16T03:28:59;98403.97;;;-0.64;73.42
14120;BME280;7138;49.246;9.100;2024-01-16T03:31:25;98411.78;;;-0.69;73.76
14120;BME280;7138;49.246;9.100;2024-01-16T03:33:53;98409.09;;;-0.69;73.98
14120;BME280;7138;49.246;9.100;2024-01-16T03:36:19;98403.53;;;-0.68;73.82
14120;BME280;7138;49.246;9.100;2024-01-16T03:38:45;98416.13;;;-0.68;73.40
14120;BME280;7138;49.246;9.100;2024-01-16T03:41:11;98416.56;;;-0.65;73.66
14120;BME280;7138;49.246;9.100;2024-01-16T03:43:37;98413.16;;;-0.59;73.45
14120;BME280;7138;49.246;9.100;2024-01-16T03:46:03;98413.25;;;-0.67;73.01
14120;BME280;7138;49.246;9.100;2024-01-16T03:48:29;98406.97;;;-0.74;72.96
14120;BME280;7138;49.246;9.100;2024-01-16T03:50:56;98412.78;;;-0.70;73.14
14120;BME280;7138;49.246;9.100;2024-01-16T03:53:22;98416.69;;;-0.73;73.22
14120;BME280;7138;49.246;9.100;2024-01-16T03:55:49;98418.44;;;-0.80;73.42
14120;BME280;7138;49.246;9.100;2024-01-16T03:58:15;98416.41;;;-0.78;73.43
14120;BME280;7138;49.246;9.100;2024-01-16T04:00:41;98419.47;;;-0.81;73.11
14120;BME280;7138;49.246;9.100;2024-01-16T04:03:07;98419.16;;;-0.86;73.61
14120;BME280;7138;49.246;9.100;2024-01-16T04:05:33;98417.16;;;-0.84;73.22
14120;BME280;7138;49.246;9.100;2024-01-16T04:08:00;98416.41;;;-0.93;73.77
14120;BME280;7138;49.246;9.100;2024-01-16T04:10:26;98413.53;;;-0.91;73.79
14120;BME280;7138;49.246;9.100;2024-01-16T04:12:52;98408.16;;;-0.91;73.19
14120;BME280;7138;49.246;9.100;2024-01-16T04:15:18;98405.84;;;-0.94;73.46
14120;BME280;7138;49.246;9.100;2024-01-16T04:17:44;98401.56;;;-1.03;74.08
14120;BME280;7138;49.246;9.100;2024-01-16T04:20:11;98409.16;;;-1.07;74.22
14120;BME280;7138;49.246;9.100;2024-01-16T04:22:36;98411.56;;;-1.12;73.84
14120;BME280;7138;49.246;9.100;2024-01-16T04:25:05;98411.75;;;-1.13;74.53
14120;BME280;7138;49.246;9.100;2024-01-16T04:27:31;98416.94;;;-1.12;74.35
14120;BME280;7138;49.246;9.100;2024-01-16T04:29:57;98409.06;;;-1.13;74.68
14120;BME280;7138;49.246;9.100;2024-01-16T04:32:23;98409.69;;;-1.11;73.99
14120;BME280;7138;49.246;9.100;2024-01-16T04:34:49;98412.84;;;-1.08;73.75
14120;BME280;7138;49.246;9.100;2024-01-16T04:37:14;98417.88;;;-1.05;74.28
14120;BME280;7138;49.246;9.100;2024-01-16T04:39:40;98417.31;;;-1.00;73.65
14120;BME280;7138;49.246;9.100;2024-01-16T04:42:07;98424.16;;;-0.98;73.90
14120;BME280;7138;49.246;9.100;2024-01-16T04:44:33;98422.16;;;-0.96;73.74
14120;BME280;7138;49.246;9.100;2024-01-16T04:46:59;98416.41;;;-0.93;72.97
14120;BME280;7138;49.246;9.100;2024-01-16T04:49:25;98421.22;;;-0.88;73.78
14120;BME280;7138;49.246;9.100;2024-01-16T04:51:51;98424.19;;;-0.83;73.48
14120;BME280;7138;49.246;9.100;2024-01-16T04:54:16;98415.00;;;-0.89;73.46
14120;BME280;7138;49.246;9.100;2024-01-16T04:56:42;98415.84;;;-0.88;73.36
14120;BME280;7138;49.246;9.100;2024-01-16T04:59:09;98416.84;;;-0.89;73.47
14120;BME280;7138;49.246;9.100;2024-01-16T05:01:35;98404.00;;;-0.94;73.32
14120;BME280;7138;49.246;9.100;2024-01-16T05:04:01;98415.66;;;-1.01;73.18
14120;BME280;7138;49.246;9.100;2024-01-16T05:06:27;98406.31;;;-0.91;72.91
14120;BME280;7138;49.246;9.100;2024-01-16T05:08:53;98407.25;;;-0.83;73.12
14120;BME280;7138;49.246;9.100;2024-01-16T05:11:19;98411.22;;;-0.94;72.79
14120;BME280;7138;49.246;9.100;2024-01-16T05:13:44;98409.72;;;-0.97;72.63
14120;BME280;7138;49.246;9.100;2024-01-16T05:16:13;98406.03;;;-0.96;73.13
14120;BME280;7138;49.246;9.100;2024-01-16T05:18:41;98400.94;;;-0.91;72.83
14120;BME280;7138;49.246;9.100;2024-01-16T05:21:08;98399.44;;;-0.93;72.80
14120;BME280;7138;49.246;9.100;2024-01-16T05:23:34;98398.31;;;-0.99;72.06
14120;BME280;7138;49.246;9.100;2024-01-16T05:26:00;98398.63;;;-0.94;72.23
14120;BME280;7138;49.246;9.100;2024-01-16T05:28:26;98402.41;;;-0.88;72.68
14120;BME280;7138;49.246;9.100;2024-01-16T05:30:52;98404.44;;;-0.90;71.38
14120;BME280;7138;49.246;9.100;2024-01-16T05:33:19;98398.06;;;-0.89;71.96
14120;BME280;7138;49.246;9.100;2024-01-16T05:35:45;98387.41;;;-0.82;71.46
14120;BME280;7138;49.246;9.100;2024-01-16T05:38:10;98397.59;;;-0.78;72.11
14120;BME280;7138;49.246;9.100;2024-01-16T05:40:38;98391.84;;;-0.75;71.30
14120;BME280;7138;49.246;9.100;2024-01-16T05:43:04;98397.69;;;-0.71;71.55
14120;BME280;7138;49.246;9.100;2024-01-16T05:45:30;98388.78;;;-0.72;71.05
14120;BME280;7138;49.246;9.100;2024-01-16T05:47:56;98377.75;;;-0.77;71.00
14120;BME280;7138;49.246;9.100;2024-01-16T05:50:23;98372.19;;;-0.90;70.83
14120;BME280;7138;49.246;9.100;2024-01-16T05:52:49;98387.13;;;-1.02;71.02
14120;BME280;7138;49.246;9.100;2024-01-16T05:55:15;98372.47;;;-1.00;71.16
14120;BME280;7138;49.246;9.100;2024-01-16T05:57:41;98372.78;;;-0.95;71.06
14120;BME280;7138;49.246;9.100;2024-01-16T06:00:10;98369.31;;;-0.89;71.80
14120;BME280;7138;49.246;9.100;2024-01-16T06:02:36;98369.31;;;-0.89;70.89
14120;BME280;7138;49.246;9.100;2024-01-16T06:05:02;98370.16;;;-0.88;71.23
14120;BME280;7138;49.246;9.100;2024-01-16T06:07:29;98362.03;;;-0.95;70.30
14120;BME280;7138;49.246;9.100;2024-01-16T06:09:55;98363.31;;;-0.91;70.51
14120;BME280;7138;49.246;9.100;2024-01-16T06:12:21;98351.38;;;-1.03;70.48
14120;BME280;7138;49.246;9.100;2024-01-16T06:14:47;98362.00;;;-1.09;70.70
14120;BME280;7138;49.246;9.100;2024-01-16T06:17:13;98358.41;;;-1.17;71.10
14120;BME280;7138;49.246;9.100;2024-01-16T06:19:39;98360.41;;;-1.19;70.66
14120;BME280;7138;49.246;9.100;2024-01-16T06:22:05;98354.66;;;-1.30;70.77
14120;BME280;7138;49.246;9.100;2024-01-16T06:24:32;98356.81;;;-1.26;71.49
14120;BME280;7138;49.246;9.100;2024-01-16T06:27:04;98349.41;;;-1.24;70.94
14120;BME280;7138;49.246;9.100;2024-01-16T06:29:30;98348.19;;;-1.21;71.38
14120;BME280;7138;49.246;9.100;2024-01-16T06:31:55;98348.09;;;-1.28;71.19
14120;BME280;7138;49.246;9.100;2024-01-16T06:34:21;98343.47;;;-1.34;70.60
14120;BME280;7138;49.246;9.100;2024-01-16T06:36:48;98336.44;;;-1.35;71.03
14120;BME280;7138;49.246;9.100;2024-01-16T06:39:14;98335.66;;;-1.43;71.44
14120;BME280;7138;49.246;9.100;2024-01-16T06:41:41;98332.97;;;-1.43;71.89
14120;BME280;7138;49.246;9.100;2024-01-16T06:44:07;98337.06;;;-1.48;72.30
14120;BME280;7138;49.246;9.100;2024-01-16T06:46:33;98338.53;;;-1.45;71.96
14120;BME280;7138;49.246;9.100;2024-01-16T06:49:00;98336.13;;;-1.40;71.82
14120;BME280;7138;49.246;9.100;2024-01-16T06:51:27;98335.09;;;-1.39;71.99
14120;BME280;7138;49.246;9.100;2024-01-16T06:53:53;98341.59;;;-1.33;71.87
14120;BME280;7138;49.246;9.100;2024-01-16T06:56:19;98342.72;;;-1.28;71.20
14120;BME280;7138;49.246;9.100;2024-01-16T06:58:46;98343.72;;;-1.29;71.30
14120;BME280;7138;49.246;9.100;2024-01-16T07:01:12;98344.28;;;-1.33;72.28
14120;BME280;7138;49.246;9.100;2024-01-16T07:03:38;98341.88;;;-1.43;72.11
14120;BME280;7138;49.246;9.100;2024-01-16T07:06:04;98341.69;;;-1.41;72.23
14120;BME280;7138;49.246;9.100;2024-01-16T07:08:30;98340.03;;;-1.42;72.20
14120;BME280;7138;49.246;9.100;2024-01-16T07:10:56;98346.22;;;-1.42;72.13
14120;BME280;7138;49.246;9.100;2024-01-16T07:13:22;98345.69;;;-1.37;71.95
14120;BME280;7138;49.246;9.100;2024-01-16T07:15:49;98340.03;;;-1.28;71.94
14120;BME280;7138;49.246;9.100;2024-01-16T07:18:15;98345.41;;;-1.28;71.98
14120;BME280;7138;49.246;9.100;2024-01-16T07:20:41;98345.59;;;-1.29;71.92
14120;BME280;7138;49.246;9.100;2024-01-16T07:23:06;98356.44;;;-1.23;71.46
14120;BME280;7138;49.246;9.100;2024-01-16T07:25:33;98350.34;;;-1.17;71.79
14120;BME280;7138;49.246;9.100;2024-01-16T07:27:59;98354.50;;;-1.14;71.06
14120;BME280;7138;49.246;9.100;2024-01-16T07:30:24;98355.59;;;-1.08;71.32
14120;BME280;7138;49.246;9.100;2024-01-16T07:32:52;98362.84;;;-1.09;71.30
14120;BME280;7138;49.246;9.100;2024-01-16T07:35:17;98361.63;;;-1.06;71.04
14120;BME280;7138;49.246;9.100;2024-01-16T07:37:43;98364.16;;;-1.05;71.30
14120;BME280;7138;49.246;9.100;2024-01-16T07:40:10;98363.66;;;-1.08;70.98
14120;BME280;7138;49.246;9.100;2024-01-16T07:42:38;98363.31;;;-1.05;70.55
14120;BME280;7138;49.246;9.100;2024-01-16T07:45:04;98360.25;;;-1.02;70.49
14120;BME280;7138;49.246;9.100;2024-01-16T07:47:31;98361.91;;;-1.01;70.92
14120;BME280;7138;49.246;9.100;2024-01-16T07:49:58;98358.78;;;-1.05;70.66
14120;BME280;7138;49.246;9.100;2024-01-16T07:52:24;98358.78;;;-1.05;70.90
14120;BME280;7138;49.246;9.100;2024-01-16T07:54:50;98350.34;;;-1.02;70.72
14120;BME280;7138;49.246;9.100;2024-01-16T07:57:16;98364.88;;;-0.96;70.95
14120;BME280;7138;49.246;9.100;2024-01-16T07:59:42;98349.22;;;-0.93;70.54
14120;BME280;7138;49.246;9.100;2024-01-16T08:02:08;98348.47;;;-0.87;70.25
14120;BME280;7138;49.246;9.100;2024-01-16T08:04:34;98364.50;;;-0.78;70.31
14120;BME280;7138;49.246;9.100;2024-01-16T08:07:02;98364.59;;;-0.72;70.23
14120;BME280;7138;49.246;9.100;2024-01-16T08:09:28;98374.59;;;-0.66;70.07
14120;BME280;7138;49.246;9.100;2024-01-16T08:11:54;98375.72;;;-0.60;69.98
14120;BME280;7138;49.246;9.100;2024-01-16T08:14:19;98373.94;;;-0.53;69.66
14120;BME280;7138;49.246;9.100;2024-01-16T08:16:45;98371.31;;;-0.46;69.30
14120;BME280;7138;49.246;9.100;2024-01-16T08:19:13;98379.69;;;-0.41;69.30
14120;BME280;7138;49.246;9.100;2024-01-16T08:21:39;98382.63;;;-0.36;69.66
14120;BME280;7138;49.246;9.100;2024-01-16T08:24:06;98383.06;;;-0.33;69.23
14120;BME280;7138;49.246;9.100;2024-01-16T08:26:32;98385.41;;;-0.30;69.17
14120;BME280;7138;49.246;9.100;2024-01-16T08:28:58;98391.41;;;-0.27;68.86
14120;BME280;7138;49.246;9.100;2024-01-16T08:31:24;98392.69;;;-0.23;68.78
14120;BME280;7138;49.246;9.100;2024-01-16T08:33:50;98390.88;;;-0.38;68.35
14120;BME280;7138;49.246;9.100;2024-01-16T08:36:16;98390.25;;;-0.40;68.62
14120;BME280;7138;49.246;9.100;2024-01-16T08:38:41;98391.53;;;-0.36;69.03
14120;BME280;7138;49.246;9.100;2024-01-16T08:41:09;98396.16;;;-0.30;68.84
14120;BME280;7138;49.246;9.100;2024-01-16T08:43:34;98399.69;;;-0.29;68.94
14120;BME280;7138;49.246;9.100;2024-01-16T08:46:00;98402.19;;;-0.27;68.32
14120;BME280;7138;49.246;9.100;2024-01-16T08:48:26;98409.13;;;-0.33;68.48
14120;BME280;7138;49.246;9.100;2024-01-16T08:50:52;98410.50;;;-0.22;69.14
14120;BME280;7138;49.246;9.100;2024-01-16T08:53:19;98414.22;;;-0.09;69.23
14120;BME280;7138;49.246;9.100;2024-01-16T08:55:45;98415.81;;;0.07;69.22
14120;BME280;7138;49.246;9.100;2024-01-16T08:58:12;98426.09;;;0.18;68.77
14120;BME280;7138;49.246;9.100;2024-01-16T09:00:38;98429.94;;;0.31;68.53
14120;BME280;7138;49.246;9.100;2024-01-16T09:03:04;98424.50;;;0.45;68.10
14120;BME280;7138;49.246;9.100;2024-01-16T09:05:30;98424.19;;;0.55;67.73
14120;BME280;7138;49.246;9.100;2024-01-16T09:07:56;98426.94;;;0.62;66.53
14120;BME280;7138;49.246;9.100;2024-01-16T09:10:22;98425.97;;;0.69;67.23
14120;BME280;7138;49.246;9.100;2024-01-16T09:12:48;98435.81;;;0.83;67.01
14120;BME280;7138;49.246;9.100;2024-01-16T09:15:15;98425.34;;;0.95;67.34
14120;BME280;7138;49.246;9.100;2024-01-16T09:17:41;98424.44;;;1.09;67.44
14120;BME280;7138;49.246;9.100;2024-01-16T09:20:08;98427.41;;;1.21;66.60
14120;BME280;7138;49.246;9.100;2024-01-16T09:22:34;98424.16;;;1.32;67.09
14120;BME280;7138;49.246;9.100;2024-01-16T09:25:00;98427.13;;;1.44;66.36
14120;BME280;7138;49.246;9.100;2024-01-16T09:27:27;98426.78;;;1.54;66.47
14120;BME280;7138;49.246;9.100;2024-01-16T09:29:52;98432.66;;;1.64;65.66
14120;BME280;7138;49.246;9.100;2024-01-16T09:32:20;98435.38;;;1.70;65.81
14120;BME280;7138;49.246;9.100;2024-01-16T09:34:45;98451.19;;;1.80;65.40
14120;BME280;7138;49.246;9.100;2024-01-16T09:37:11;98449.53;;;1.79;64.93
14120;BME280;7138;49.246;9.100;2024-01-16T09:39:40;98447.28;;;1.83;62.92
14120;BME280;7138;49.246;9.100;2024-01-16T09:42:07;98441.88;;;1.89;64.42
14120;BME280;7138;49.246;9.100;2024-01-16T09:44:33;98448.78;;;1.98;64.33
14120;BME280;7138;49.246;9.100;2024-01-16T09:47:01;98441.75;;;2.11;64.42
14120;BME280;7138;49.246;9.100;2024-01-16T09:49:31;98436.59;;;2.16;63.30
14120;BME280;7138;49.246;9.100;2024-01-16T09:51:56;98437.63;;;2.21;63.93
14120;BME280;7138;49.246;9.100;2024-01-16T09:54:24;98442.03;;;2.29;63.19
14120;BME280;7138;49.246;9.100;2024-01-16T09:56:58;98439.56;;;2.41;63.29
14120;BME280;7138;49.246;9.100;2024-01-16T09:59:26;98427.75;;;2.48;62.45
14120;BME280;7138;49.246;9.100;2024-01-16T10:01:55;98421.13;;;2.57;63.02
14120;BME280;7138;49.246;9.100;2024-01-16T10:04:21;98411.97;;;2.72;63.13
14120;BME280;7138;49.246;9.100;2024-01-16T10:06:51;98408.22;;;2.86;63.38
14120;BME280;7138;49.246;9.100;2024-01-16T10:09:17;98405.09;;;2.96;62.81
14120;BME280;7138;49.246;9.100;2024-01-16T10:11:45;98389.91;;;3.08;62.11
14120;BME280;7138;49.246;9.100;2024-01-16T10:14:11;98380.13;;;3.13;61.61
14120;BME280;7138;49.246;9.100;2024-01-16T10:16:57;98388.25;;;3.13;60.12
14120;BME280;7138;49.246;9.100;2024-01-16T10:19:31;98395.34;;;3.01;59.36
14120;BME280;7138;49.246;9.100;2024-01-16T10:22:04;98405.94;;;3.03;60.60
14120;BME280;7138;49.246;9.100;2024-01-16T10:24:32;98409.28;;;2.98;60.77
14120;BME280;7138;49.246;9.100;2024-01-16T10:27:01;98406.97;;;3.02;60.99
14120;BME280;7138;49.246;9.100;2024-01-16T10:29:32;98406.13;;;3.08;61.28
14120;BME280;7138;49.246;9.100;2024-01-16T10:31:58;98413.41;;;3.14;61.05
14120;BME280;7138;49.246;9.100;2024-01-16T10:34:24;98410.06;;;3.18;60.74
14120;BME280;7138;49.246;9.100;2024-01-16T10:36:52;98398.00;;;3.08;59.17
14120;BME280;7138;49.246;9.100;2024-01-16T10:39:25;98406.78;;;3.10;59.17
14120;BME280;7138;49.246;9.100;2024-01-16T10:41:54;98405.53;;;3.19;60.85
14120;BME280;7138;49.246;9.100;2024-01-16T10:44:21;98403.00;;;3.17;59.85
14120;BME280;7138;49.246;9.100;2024-01-16T10:46:47;98400.09;;;3.06;57.97
14120;BME280;7138;49.246;9.100;2024-01-16T10:49:12;98388.47;;;2.92;58.61
14120;BME280;7138;49.246;9.100;2024-01-16T10:51:43;98392.84;;;3.00;59.76
14120;BME280;7138;49.246;9.100;2024-01-16T10:54:13;98392.19;;;3.04;60.40
14120;BME280;7138;49.246;9.100;2024-01-16T10:56:45;98377.25;;;2.88;56.67
14120;BME280;7138;49.246;9.100;2024-01-16T10:59:21;98372.25;;;2.92;60.00
14120;BME280;7138;49.246;9.100;2024-01-16T11:01:55;98368.09;;;2.83;59.23
14120;BME280;7138;49.246;9.100;2024-01-16T11:04:23;98367.03;;;2.64;59.65
14120;BME280;7138;49.246;9.100;2024-01-16T11:06:52;98360.59;;;2.72;59.39
14120;BME280;7138;49.246;9.100;2024-01-16T11:09:20;98362.06;;;2.87;60.77
14120;BME280;7138;49.246;9.100;2024-01-16T11:11:50;98357.91;;;2.98;59.13
14120;BME280;7138;49.246;9.100;2024-01-16T11:14:17;98354.97;;;3.06;59.51
14120;BME280;7138;49.246;9.100;2024-01-16T11:16:47;98350.38;;;3.20;60.33
14120;BME280;7138;49.246;9.100;2024-01-16T11:19:15;98357.66;;;3.06;56.97
14120;BME280;7138;49.246;9.100;2024-01-16T11:21:43;98353.28;;;3.12;60.68
14120;BME280;7138;49.246;9.100;2024-01-16T11:24:09;98354.09;;;3.26;60.66
14120;BME280;7138;49.246;9.100;2024-01-16T11:26:39;98354.69;;;3.28;56.92
14120;BME280;7138;49.246;9.100;2024-01-16T11:29:37;98355.53;;;3.41;59.60
14120;BME280;7138;49.246;9.100;2024-01-16T11:32:03;98347.19;;;3.43;59.27
14120;BME280;7138;49.246;9.100;2024-01-16T11:34:53;98349.41;;;3.59;57.97
14120;BME280;7138;49.246;9.100;2024-01-16T11:37:27;98346.03;;;3.70;58.95
14120;BME280;7138;49.246;9.100;2024-01-16T11:40:22;98338.63;;;3.91;57.91
14120;BME280;7138;49.246;9.100;2024-01-16T11:42:51;98339.44;;;3.98;58.04
14120;BME280;7138;49.246;9.100;2024-01-16T11:45:50;98336.66;;;4.11;58.28
14120;BME280;7138;49.246;9.100;2024-01-16T11:48:17;98328.66;;;4.23;58.35
14120;BME280;7138;49.246;9.100;2024-01-16T11:50:44;98331.72;;;4.33;58.15
14120;BME280;7138;49.246;9.100;2024-01-16T11:53:10;98318.94;;;4.40;57.95
14120;BME280;7138;49.246;9.100;2024-01-16T11:55:58;98319.44;;;4.55;55.49
14120;BME280;7138;49.246;9.100;2024-01-16T11:58:48;98310.16;;;4.70;55.36
14120;BME280;7138;49.246;9.100;2024-01-16T12:01:18;98304.97;;;4.68;53.62
14120;BME280;7138;49.246;9.100;2024-01-16T12:03:45;98295.47;;;4.77;57.46
14120;BME280;7138;49.246;9.100;2024-01-16T12:06:11;98292.84;;;4.71;55.81
14120;BME280;7138;49.246;9.100;2024-01-16T12:08:37;98292.00;;;4.70;55.93
14120;BME280;7138;49.246;9.100;2024-01-16T12:11:03;98291.78;;;4.72;54.20
14120;BME280;7138;49.246;9.100;2024-01-16T12:13:29;98291.59;;;4.67;54.30
14120;BME280;7138;49.246;9.100;2024-01-16T12:16:03;98275.56;;;4.65;55.64
14120;BME280;7138;49.246;9.100;2024-01-16T12:18:31;98278.22;;;4.72;55.32
14120;BME280;7138;49.246;9.100;2024-01-16T12:20:56;98270.00;;;4.78;55.94
14120;BME280;7138;49.246;9.100;2024-01-16T12:23:24;98263.47;;;4.86;55.63
14120;BME280;7138;49.246;9.100;2024-01-16T12:25:53;98267.41;;;4.90;55.67
14120;BME280;7138;49.246;9.100;2024-01-16T12:28:27;98269.72;;;4.86;53.92
14120;BME280;7138;49.246;9.100;2024-01-16T12:30:53;98266.13;;;4.92;55.38
14120;BME280;7138;49.246;9.100;2024-01-16T12:33:22;98255.94;;;4.88;54.49
14120;BME280;7138;49.246;9.100;2024-01-16T12:35:49;98246.53;;;4.90;55.18
14120;BME280;7138;49.246;9.100;2024-01-16T12:38:17;98241.63;;;4.99;55.58
14120;BME280;7138;49.246;9.100;2024-01-16T12:40:47;98235.69;;;4.90;53.66
14120;BME280;7138;49.246;9.100;2024-01-16T12:43:14;98239.00;;;4.92;54.75
14120;BME280;7138;49.246;9.100;2024-01-16T12:45:41;98234.19;;;4.94;55.06
14120;BME280;7138;49.246;9.100;2024-01-16T12:48:07;98237.44;;;5.03;53.79
14120;BME280;7138;49.246;9.100;2024-01-16T12:50:33;98229.13;;;4.98;53.82
14120;BME280;7138;49.246;9.100;2024-01-16T12:53:06;98232.91;;;4.97;54.54
14120;BME280;7138;49.246;9.100;2024-01-16T12:55:33;98231.47;;;4.94;54.43
14120;BME280;7138;49.246;9.100;2024-01-16T12:58:14;98229.66;;;4.88;53.96
14120;BME280;7138;49.246;9.100;2024-01-16T13:00:41;98227.16;;;4.87;55.42
14120;BME280;7138;49.246;9.100;2024-01-16T13:03:07;98221.13;;;4.85;55.18
14120;BME280;7138;49.246;9.100;2024-01-16T13:05:33;98214.28;;;4.82;54.36
14120;BME280;7138;49.246;9.100;2024-01-16T13:08:03;98219.41;;;4.72;54.43
14120;BME280;7138;49.246;9.100;2024-01-16T13:10:30;98217.97;;;4.70;54.58
14120;BME280;7138;49.246;9.100;2024-01-16T13:13:12;98213.44;;;4.63;53.51
14120;BME280;7138;49.246;9.100;2024-01-16T13:15:38;98217.06;;;4.57;54.23